sensor_id;sensor_type;location;lat;lon;timestamp;P1;durP1;ratioP1;P2;durP2;ratioP2
74833;SDS011;63361;52.384;20.930;2022-11-20T00:00:45;46.47;;;19.57;;
74833;SDS011;63361;52.384;20.930;2022-11-20T00:03:10;44.00;;;18.37;;
74833;SDS011;63361;52.384;20.930;2022-11-20T00:05:35;42.10;;;18.20;;
74833;SDS011;63361;52.384;20.930;2022-11-20T00:08:01;45.80;;;18.57;;
74833;SDS011;63361;52.384;20.930;2022-11-20T00:10:27;39.88;;;18.60;;
74833;SDS011;63361;52.384;20.930;2022-11-20T00:12:52;43.53;;;18.23;;
74833;SDS011;63361;52.384;20.930;2022-11-20T00:15:17;46.83;;;19.23;;
74833;SDS011;63361;52.384;20.930;2022-11-20T00:17:43;43.13;;;18.33;;
74833;SDS011;63361;52.384;20.930;2022-11-20T00:20:08;40.07;;;17.27;;
74833;SDS011;63361;52.384;20.930;2022-11-20T00:22:34;46.30;;;20.93;;
74833;SDS011;63361;52.384;20.930;2022-11-20T00:25:00;43.40;;;18.02;;
74833;SDS011;63361;52.384;20.930;2022-11-20T00:27:25;41.93;;;19.60;;
74833;SDS011;63361;52.384;20.930;2022-11-20T00:29:50;42.50;;;17.53;;
74833;SDS011;63361;52.384;20.930;2022-11-20T00:32:16;48.93;;;21.17;;
74833;SDS011;63361;52.384;20.930;2022-11-20T00:34:41;46.13;;;20.70;;
74833;SDS011;63361;52.384;20.930;2022-11-20T00:37:06;47.00;;;20.17;;
74833;SDS011;63361;52.384;20.930;2022-11-20T00:39:32;43.87;;;19.97;;
74833;SDS011;63361;52.384;20.930;2022-11-20T00:41:57;52.83;;;21.63;;
74833;SDS011;63361;52.384;20.930;2022-11-20T00:44:22;49.70;;;19.97;;
74833;SDS011;63361;52.384;20.930;2022-11-20T00:46:48;44.03;;;19.43;;
74833;SDS011;63361;52.384;20.930;2022-11-20T00:49:13;48.50;;;20.97;;
74833;SDS011;63361;52.384;20.930;2022-11-20T00:51:38;42.67;;;19.40;;
74833;SDS011;63361;52.384;20.930;2022-11-20T00:54:04;40.87;;;18.87;;
74833;SDS011;63361;52.384;20.930;2022-11-20T00:56:29;40.13;;;18.98;;
74833;SDS011;63361;52.384;20.930;2022-11-20T00:58:55;52.33;;;20.17;;
74833;SDS011;63361;52.384;20.930;2022-11-20T01:01:21;46.90;;;18.93;;
74833;SDS011;63361;52.384;20.930;2022-11-20T01:03:49;47.85;;;20.25;;
74833;SDS011;63361;52.384;20.930;2022-11-20T01:06:23;45.88;;;19.35;;
74833;SDS011;63361;52.384;20.930;2022-11-20T01:08:50;45.92;;;19.90;;
74833;SDS011;63361;52.384;20.930;2022-11-20T01:11:18;39.67;;;18.20;;
74833;SDS011;63361;52.384;20.930;2022-11-20T01:13:46;44.78;;;19.98;;
74833;SDS011;63361;52.384;20.930;2022-11-20T01:16:15;47.15;;;20.95;;
74833;SDS011;63361;52.384;20.930;2022-11-20T01:18:45;47.38;;;21.05;;
74833;SDS011;63361;52.384;20.930;2022-11-20T01:21:15;48.92;;;19.42;;
74833;SDS011;63361;52.384;20.930;2022-11-20T01:23:43;48.07;;;20.73;;
74833;SDS011;63361;52.384;20.930;2022-11-20T01:26:11;46.50;;;19.42;;
74833;SDS011;63361;52.384;20.930;2022-11-20T01:28:38;43.80;;;20.17;;
74833;SDS011;63361;52.384;20.930;2022-11-20T01:31:20;49.83;;;19.33;;
74833;SDS011;63361;52.384;20.930;2022-11-20T01:33:47;43.28;;;19.75;;
74833;SDS011;63361;52.384;20.930;2022-11-20T01:36:15;48.47;;;19.80;;
74833;SDS011;63361;52.384;20.930;2022-11-20T01:38:41;44.30;;;19.40;;
74833;SDS011;63361;52.384;20.930;2022-11-20T01:41:07;46.50;;;20.10;;
74833;SDS011;63361;52.384;20.930;2022-11-20T01:43:33;45.30;;;18.73;;
74833;SDS011;63361;52.384;20.930;2022-11-20T01:48:30;44.73;;;19.70;;
74833;SDS011;63361;52.384;20.930;2022-11-20T01:51:01;49.15;;;19.83;;
74833;SDS011;63361;52.384;20.930;2022-11-20T01:53:30;46.25;;;19.77;;
74833;SDS011;63361;52.384;20.930;2022-11-20T01:55:59;50.33;;;23.02;;
74833;SDS011;63361;52.384;20.930;2022-11-20T01:58:29;44.47;;;20.15;;
74833;SDS011;63361;52.384;20.930;2022-11-20T02:00:58;49.47;;;20.67;;
74833;SDS011;63361;52.384;20.930;2022-11-20T02:03:24;50.03;;;20.73;;
74833;SDS011;63361;52.384;20.930;2022-11-20T02:05:52;46.72;;;19.65;;
74833;SDS011;63361;52.384;20.930;2022-11-20T02:08:23;45.73;;;19.60;;
74833;SDS011;63361;52.384;20.930;2022-11-20T02:10:48;46.83;;;20.27;;
74833;SDS011;63361;52.384;20.930;2022-11-20T02:13:14;41.23;;;18.10;;
74833;SDS011;63361;52.384;20.930;2022-11-20T02:15:58;48.95;;;18.40;;
74833;SDS011;63361;52.384;20.930;2022-11-20T02:18:23;47.07;;;19.77;;
74833;SDS011;63361;52.384;20.930;2022-11-20T02:20:53;43.42;;;18.58;;
74833;SDS011;63361;52.384;20.930;2022-11-20T02:26:15;38.97;;;16.63;;
74833;SDS011;63361;52.384;20.930;2022-11-20T02:28:41;39.83;;;18.33;;
74833;SDS011;63361;52.384;20.930;2022-11-20T02:31:07;43.03;;;18.07;;
74833;SDS011;63361;52.384;20.930;2022-11-20T02:33:32;41.50;;;17.95;;
74833;SDS011;63361;52.384;20.930;2022-11-20T02:35:58;46.70;;;18.37;;
74833;SDS011;63361;52.384;20.930;2022-11-20T02:38:23;42.97;;;17.47;;
74833;SDS011;63361;52.384;20.930;2022-11-20T02:40:48;41.47;;;17.70;;
74833;SDS011;63361;52.384;20.930;2022-11-20T02:43:15;35.40;;;16.90;;
74833;SDS011;63361;52.384;20.930;2022-11-20T02:45:40;46.40;;;17.55;;
74833;SDS011;63361;52.384;20.930;2022-11-20T02:48:06;40.03;;;17.83;;
74833;SDS011;63361;52.384;20.930;2022-11-20T02:50:32;39.67;;;17.55;;
74833;SDS011;63361;52.384;20.930;2022-11-20T02:52:57;41.43;;;16.80;;
74833;SDS011;63361;52.384;20.930;2022-11-20T02:55:22;39.00;;;16.47;;
74833;SDS011;63361;52.384;20.930;2022-11-20T02:57:48;39.77;;;16.87;;
74833;SDS011;63361;52.384;20.930;2022-11-20T03:00:13;43.03;;;18.40;;
74833;SDS011;63361;52.384;20.930;2022-11-20T03:02:39;40.07;;;17.33;;
74833;SDS011;63361;52.384;20.930;2022-11-20T03:05:04;40.47;;;17.47;;
74833;SDS011;63361;52.384;20.930;2022-11-20T03:07:30;40.42;;;16.92;;
74833;SDS011;63361;52.384;20.930;2022-11-20T03:09:55;38.47;;;17.03;;
74833;SDS011;63361;52.384;20.930;2022-11-20T03:12:20;42.67;;;16.87;;
74833;SDS011;63361;52.384;20.930;2022-11-20T03:14:46;41.47;;;17.50;;
74833;SDS011;63361;52.384;20.930;2022-11-20T03:17:11;44.80;;;20.10;;
74833;SDS011;63361;52.384;20.930;2022-11-20T03:19:36;36.63;;;16.20;;
74833;SDS011;63361;52.384;20.930;2022-11-20T03:22:02;40.45;;;17.95;;
74833;SDS011;63361;52.384;20.930;2022-11-20T03:24:27;39.07;;;17.43;;
74833;SDS011;63361;52.384;20.930;2022-11-20T03:26:53;42.90;;;16.57;;
74833;SDS011;63361;52.384;20.930;2022-11-20T03:29:18;42.27;;;17.20;;
74833;SDS011;63361;52.384;20.930;2022-11-20T03:31:44;41.43;;;17.93;;
74833;SDS011;63361;52.384;20.930;2022-11-20T03:34:09;45.20;;;17.73;;
74833;SDS011;63361;52.384;20.930;2022-11-20T03:36:39;45.53;;;19.33;;
74833;SDS011;63361;52.384;20.930;2022-11-20T03:39:06;43.30;;;18.73;;
74833;SDS011;63361;52.384;20.930;2022-11-20T03:41:35;50.55;;;20.48;;
74833;SDS011;63361;52.384;20.930;2022-11-20T03:44:03;42.17;;;18.73;;
74833;SDS011;63361;52.384;20.930;2022-11-20T03:46:29;44.67;;;17.65;;
74833;SDS011;63361;52.384;20.930;2022-11-20T03:48:55;43.97;;;18.33;;
74833;SDS011;63361;52.384;20.930;2022-11-20T03:51:23;45.78;;;18.92;;
74833;SDS011;63361;52.384;20.930;2022-11-20T03:53:51;46.10;;;19.00;;
74833;SDS011;63361;52.384;20.930;2022-11-20T03:56:18;44.95;;;16.90;;
74833;SDS011;63361;52.384;20.930;2022-11-20T03:58:46;42.22;;;17.67;;
74833;SDS011;63361;52.384;20.930;2022-11-20T04:01:12;40.87;;;17.83;;
74833;SDS011;63361;52.384;20.930;2022-11-20T04:03:43;41.38;;;18.58;;
74833;SDS011;63361;52.384;20.930;2022-11-20T04:06:12;57.85;;;21.05;;
74833;SDS011;63361;52.384;20.930;2022-11-20T04:08:39;40.30;;;17.95;;
74833;SDS011;63361;52.384;20.930;2022-11-20T04:11:09;39.50;;;16.90;;
74833;SDS011;63361;52.384;20.930;2022-11-20T04:13:39;42.03;;;17.40;;
74833;SDS011;63361;52.384;20.930;2022-11-20T04:16:06;46.38;;;18.88;;
74833;SDS011;63361;52.384;20.930;2022-11-20T04:18:32;50.50;;;20.73;;
74833;SDS011;63361;52.384;20.930;2022-11-20T04:20:58;54.93;;;22.77;;
74833;SDS011;63361;52.384;20.930;2022-11-20T04:23:24;51.30;;;23.17;;
74833;SDS011;63361;52.384;20.930;2022-11-20T04:25:49;51.78;;;20.85;;
74833;SDS011;63361;52.384;20.930;2022-11-20T04:28:15;52.63;;;20.07;;
74833;SDS011;63361;52.384;20.930;2022-11-20T04:30:40;52.07;;;22.20;;
74833;SDS011;63361;52.384;20.930;2022-11-20T04:33:05;64.13;;;24.07;;
74833;SDS011;63361;52.384;20.930;2022-11-20T04:35:33;66.80;;;27.20;;
74833;SDS011;63361;52.384;20.930;2022-11-20T04:37:59;61.75;;;24.92;;
74833;SDS011;63361;52.384;20.930;2022-11-20T04:40:24;53.27;;;21.30;;
74833;SDS011;63361;52.384;20.930;2022-11-20T04:42:50;69.47;;;26.30;;
74833;SDS011;63361;52.384;20.930;2022-11-20T04:45:15;55.43;;;23.03;;
74833;SDS011;63361;52.384;20.930;2022-11-20T04:47:41;53.60;;;20.23;;
74833;SDS011;63361;52.384;20.930;2022-11-20T04:50:06;65.17;;;25.50;;
74833;SDS011;63361;52.384;20.930;2022-11-20T04:52:32;54.00;;;22.40;;
74833;SDS011;63361;52.384;20.930;2022-11-20T04:54:57;100.17;;;33.43;;
74833;SDS011;63361;52.384;20.930;2022-11-20T04:57:22;107.70;;;36.67;;
74833;SDS011;63361;52.384;20.930;2022-11-20T04:59:48;113.13;;;38.97;;
74833;SDS011;63361;52.384;20.930;2022-11-20T05:02:13;70.43;;;28.27;;
74833;SDS011;63361;52.384;20.930;2022-11-20T05:04:38;88.13;;;31.63;;
74833;SDS011;63361;52.384;20.930;2022-11-20T05:07:04;59.60;;;23.67;;
74833;SDS011;63361;52.384;20.930;2022-11-20T05:09:29;85.50;;;32.05;;
74833;SDS011;63361;52.384;20.930;2022-11-20T05:11:55;102.23;;;35.63;;
74833;SDS011;63361;52.384;20.930;2022-11-20T05:14:20;78.13;;;27.30;;
74833;SDS011;63361;52.384;20.930;2022-11-20T05:16:45;77.93;;;28.57;;
74833;SDS011;63361;52.384;20.930;2022-11-20T05:19:11;56.67;;;23.83;;
74833;SDS011;63361;52.384;20.930;2022-11-20T05:21:36;53.92;;;23.50;;
74833;SDS011;63361;52.384;20.930;2022-11-20T05:24:02;53.27;;;22.43;;
74833;SDS011;63361;52.384;20.930;2022-11-20T05:26:27;52.07;;;21.67;;
74833;SDS011;63361;52.384;20.930;2022-11-20T05:28:52;53.17;;;21.83;;
74833;SDS011;63361;52.384;20.930;2022-11-20T05:31:19;57.07;;;22.97;;
74833;SDS011;63361;52.384;20.930;2022-11-20T05:33:49;58.55;;;22.23;;
74833;SDS011;63361;52.384;20.930;2022-11-20T05:36:14;47.93;;;22.93;;
74833;SDS011;63361;52.384;20.930;2022-11-20T05:38:41;59.43;;;22.97;;
74833;SDS011;63361;52.384;20.930;2022-11-20T05:41:08;55.35;;;22.48;;
74833;SDS011;63361;52.384;20.930;2022-11-20T05:43:39;60.38;;;21.75;;
74833;SDS011;63361;52.384;20.930;2022-11-20T05:46:06;55.00;;;22.13;;
74833;SDS011;63361;52.384;20.930;2022-11-20T05:48:33;57.53;;;23.23;;
74833;SDS011;63361;52.384;20.930;2022-11-20T05:51:00;55.03;;;22.40;;
74833;SDS011;63361;52.384;20.930;2022-11-20T05:53:26;54.75;;;22.90;;
74833;SDS011;63361;52.384;20.930;2022-11-20T05:58:28;60.25;;;22.80;;
74833;SDS011;63361;52.384;20.930;2022-11-20T06:00:54;55.33;;;26.13;;
74833;SDS011;63361;52.384;20.930;2022-11-20T06:03:20;58.63;;;24.97;;
74833;SDS011;63361;52.384;20.930;2022-11-20T06:05:46;59.17;;;23.30;;
74833;SDS011;63361;52.384;20.930;2022-11-20T06:08:11;60.97;;;22.93;;
74833;SDS011;63361;52.384;20.930;2022-11-20T06:10:37;60.75;;;24.60;;
74833;SDS011;63361;52.384;20.930;2022-11-20T06:13:02;58.80;;;23.70;;
74833;SDS011;63361;52.384;20.930;2022-11-20T06:15:28;55.03;;;23.40;;
74833;SDS011;63361;52.384;20.930;2022-11-20T06:17:54;60.63;;;24.27;;
74833;SDS011;63361;52.384;20.930;2022-11-20T06:20:20;54.85;;;23.73;;
74833;SDS011;63361;52.384;20.930;2022-11-20T06:22:47;49.63;;;22.53;;
74833;SDS011;63361;52.384;20.930;2022-11-20T06:25:12;50.85;;;22.23;;
74833;SDS011;63361;52.384;20.930;2022-11-20T06:27:38;57.83;;;23.43;;
74833;SDS011;63361;52.384;20.930;2022-11-20T06:30:04;57.08;;;24.80;;
74833;SDS011;63361;52.384;20.930;2022-11-20T06:32:29;57.57;;;24.13;;
74833;SDS011;63361;52.384;20.930;2022-11-20T06:34:55;55.50;;;22.92;;
74833;SDS011;63361;52.384;20.930;2022-11-20T06:37:20;54.90;;;23.23;;
74833;SDS011;63361;52.384;20.930;2022-11-20T06:39:46;56.23;;;25.03;;
74833;SDS011;63361;52.384;20.930;2022-11-20T06:42:11;57.67;;;23.17;;
74833;SDS011;63361;52.384;20.930;2022-11-20T06:44:36;56.43;;;24.00;;
74833;SDS011;63361;52.384;20.930;2022-11-20T06:47:02;51.83;;;21.20;;
74833;SDS011;63361;52.384;20.930;2022-11-20T06:49:27;45.50;;;19.75;;
74833;SDS011;63361;52.384;20.930;2022-11-20T06:51:52;45.93;;;19.80;;
74833;SDS011;63361;52.384;20.930;2022-11-20T06:54:18;44.60;;;19.30;;
74833;SDS011;63361;52.384;20.930;2022-11-20T06:56:46;40.17;;;19.33;;
74833;SDS011;63361;52.384;20.930;2022-11-20T06:59:12;41.10;;;19.20;;
74833;SDS011;63361;52.384;20.930;2022-11-20T07:01:38;41.87;;;18.10;;
74833;SDS011;63361;52.384;20.930;2022-11-20T07:04:03;45.83;;;18.40;;
74833;SDS011;63361;52.384;20.930;2022-11-20T07:06:29;42.88;;;18.77;;
74833;SDS011;63361;52.384;20.930;2022-11-20T07:08:54;40.10;;;18.10;;
74833;SDS011;63361;52.384;20.930;2022-11-20T07:11:19;45.60;;;18.40;;
74833;SDS011;63361;52.384;20.930;2022-11-20T07:13:45;39.63;;;18.20;;
74833;SDS011;63361;52.384;20.930;2022-11-20T07:16:12;42.50;;;18.88;;
74833;SDS011;63361;52.384;20.930;2022-11-20T07:18:37;39.70;;;18.30;;
74833;SDS011;63361;52.384;20.930;2022-11-20T07:21:04;47.05;;;19.02;;
74833;SDS011;63361;52.384;20.930;2022-11-20T07:23:31;44.40;;;17.90;;
74833;SDS011;63361;52.384;20.930;2022-11-20T07:25:57;38.38;;;18.02;;
74833;SDS011;63361;52.384;20.930;2022-11-20T07:28:23;43.90;;;19.33;;
74833;SDS011;63361;52.384;20.930;2022-11-20T07:30:52;43.47;;;19.50;;
74833;SDS011;63361;52.384;20.930;2022-11-20T07:33:18;45.65;;;19.15;;
74833;SDS011;63361;52.384;20.930;2022-11-20T07:35:45;49.28;;;19.73;;
74833;SDS011;63361;52.384;20.930;2022-11-20T07:38:10;47.67;;;21.10;;
74833;SDS011;63361;52.384;20.930;2022-11-20T07:40:36;51.83;;;22.37;;
74833;SDS011;63361;52.384;20.930;2022-11-20T07:43:01;50.87;;;21.50;;
74833;SDS011;63361;52.384;20.930;2022-11-20T07:45:27;82.30;;;28.57;;
74833;SDS011;63361;52.384;20.930;2022-11-20T07:47:52;56.63;;;22.57;;
74833;SDS011;63361;52.384;20.930;2022-11-20T07:50:18;55.80;;;23.63;;
74833;SDS011;63361;52.384;20.930;2022-11-20T07:52:44;42.28;;;19.10;;
74833;SDS011;63361;52.384;20.930;2022-11-20T07:55:09;45.97;;;21.90;;
74833;SDS011;63361;52.384;20.930;2022-11-20T07:57:35;37.80;;;17.52;;
74833;SDS011;63361;52.384;20.930;2022-11-20T08:00:01;45.03;;;20.30;;
74833;SDS011;63361;52.384;20.930;2022-11-20T08:02:28;36.55;;;19.08;;
74833;SDS011;63361;52.384;20.930;2022-11-20T08:04:53;36.90;;;18.85;;
74833;SDS011;63361;52.384;20.930;2022-11-20T08:07:19;42.57;;;21.07;;
74833;SDS011;63361;52.384;20.930;2022-11-20T08:09:44;42.50;;;19.53;;
74833;SDS011;63361;52.384;20.930;2022-11-20T08:12:16;44.27;;;20.13;;
74833;SDS011;63361;52.384;20.930;2022-11-20T08:15:03;48.83;;;23.60;;
74833;SDS011;63361;52.384;20.930;2022-11-20T08:17:29;37.25;;;18.42;;
74833;SDS011;63361;52.384;20.930;2022-11-20T08:19:55;37.80;;;17.83;;
74833;SDS011;63361;52.384;20.930;2022-11-20T08:22:20;39.30;;;19.00;;
74833;SDS011;63361;52.384;20.930;2022-11-20T08:24:45;37.43;;;18.30;;
74833;SDS011;63361;52.384;20.930;2022-11-20T08:27:11;39.93;;;18.00;;
74833;SDS011;63361;52.384;20.930;2022-11-20T08:29:37;36.20;;;18.25;;
74833;SDS011;63361;52.384;20.930;2022-11-20T08:32:02;63.87;;;29.97;;
74833;SDS011;63361;52.384;20.930;2022-11-20T08:34:27;123.27;;;47.10;;
74833;SDS011;63361;52.384;20.930;2022-11-20T08:36:53;85.73;;;39.97;;
74833;SDS011;63361;52.384;20.930;2022-11-20T08:39:18;41.80;;;20.43;;
74833;SDS011;63361;52.384;20.930;2022-11-20T08:41:43;37.97;;;18.10;;
74833;SDS011;63361;52.384;20.930;2022-11-20T08:44:09;42.60;;;20.17;;
74833;SDS011;63361;52.384;20.930;2022-11-20T08:46:38;42.00;;;21.03;;
74833;SDS011;63361;52.384;20.930;2022-11-20T08:49:12;44.70;;;21.30;;
74833;SDS011;63361;52.384;20.930;2022-11-20T08:51:39;38.53;;;19.00;;
74833;SDS011;63361;52.384;20.930;2022-11-20T08:54:05;41.75;;;19.35;;
74833;SDS011;63361;52.384;20.930;2022-11-20T08:56:31;67.20;;;28.77;;
74833;SDS011;63361;52.384;20.930;2022-11-20T08:58:57;108.13;;;43.63;;
74833;SDS011;63361;52.384;20.930;2022-11-20T09:01:24;67.70;;;28.65;;
74833;SDS011;63361;52.384;20.930;2022-11-20T09:03:50;62.97;;;25.55;;
74833;SDS011;63361;52.384;20.930;2022-11-20T09:06:16;82.43;;;33.73;;
74833;SDS011;63361;52.384;20.930;2022-11-20T09:08:41;90.30;;;36.73;;
74833;SDS011;63361;52.384;20.930;2022-11-20T09:11:07;191.50;;;81.80;;
74833;SDS011;63361;52.384;20.930;2022-11-20T09:13:33;171.43;;;78.03;;
74833;SDS011;63361;52.384;20.930;2022-11-20T09:16:01;54.65;;;25.00;;
74833;SDS011;63361;52.384;20.930;2022-11-20T09:18:29;61.33;;;30.50;;
74833;SDS011;63361;52.384;20.930;2022-11-20T09:20:59;43.38;;;20.60;;
74833;SDS011;63361;52.384;20.930;2022-11-20T09:23:26;40.17;;;19.73;;
74833;SDS011;63361;52.384;20.930;2022-11-20T09:25:52;44.23;;;19.90;;
74833;SDS011;63361;52.384;20.930;2022-11-20T09:28:20;52.83;;;24.52;;
74833;SDS011;63361;52.384;20.930;2022-11-20T09:30:45;47.13;;;21.47;;
74833;SDS011;63361;52.384;20.930;2022-11-20T09:33:11;310.73;;;113.13;;
74833;SDS011;63361;52.384;20.930;2022-11-20T09:35:36;60.10;;;28.47;;
74833;SDS011;63361;52.384;20.930;2022-11-20T09:38:07;42.60;;;19.03;;
74833;SDS011;63361;52.384;20.930;2022-11-20T09:40:34;51.17;;;27.40;;
74833;SDS011;63361;52.384;20.930;2022-11-20T09:43:03;48.17;;;21.87;;
74833;SDS011;63361;52.384;20.930;2022-11-20T09:56:50;45.77;;;22.17;;
74833;SDS011;63361;52.384;20.930;2022-11-20T10:05:10;47.10;;;20.30;;
74833;SDS011;63361;52.384;20.930;2022-11-20T10:10:14;47.57;;;21.30;;
74833;SDS011;63361;52.384;20.930;2022-11-20T10:13:00;51.53;;;22.35;;
74833;SDS011;63361;52.384;20.930;2022-11-20T10:15:38;56.90;;;27.60;;
74833;SDS011;63361;52.384;20.930;2022-11-20T10:18:10;64.95;;;26.75;;
74833;SDS011;63361;52.384;20.930;2022-11-20T10:20:53;57.00;;;24.95;;
74833;SDS011;63361;52.384;20.930;2022-11-20T10:31:41;70.80;;;26.45;;
74833;SDS011;63361;52.384;20.930;2022-11-20T10:34:23;90.20;;;32.08;;
74833;SDS011;63361;52.384;20.930;2022-11-20T10:36:55;60.43;;;24.27;;
74833;SDS011;63361;52.384;20.930;2022-11-20T10:39:32;82.93;;;27.00;;
74833;SDS011;63361;52.384;20.930;2022-11-20T10:42:02;136.23;;;48.00;;
74833;SDS011;63361;52.384;20.930;2022-11-20T10:44:28;85.97;;;33.90;;
74833;SDS011;63361;52.384;20.930;2022-11-20T10:47:17;168.93;;;56.83;;
74833;SDS011;63361;52.384;20.930;2022-11-20T10:49:45;113.03;;;37.90;;
74833;SDS011;63361;52.384;20.930;2022-11-20T10:58:28;74.57;;;31.70;;
74833;SDS011;63361;52.384;20.930;2022-11-20T11:01:15;80.80;;;35.80;;
74833;SDS011;63361;52.384;20.930;2022-11-20T11:03:43;54.00;;;27.27;;
74833;SDS011;63361;52.384;20.930;2022-11-20T11:08:45;50.75;;;24.33;;
74833;SDS011;63361;52.384;20.930;2022-11-20T11:13:48;95.03;;;38.30;;
74833;SDS011;63361;52.384;20.930;2022-11-20T11:16:21;43.13;;;20.65;;
74833;SDS011;63361;52.384;20.930;2022-11-20T11:18:50;66.30;;;26.50;;
74833;SDS011;63361;52.384;20.930;2022-11-20T11:21:21;53.05;;;24.48;;
74833;SDS011;63361;52.384;20.930;2022-11-20T11:23:48;65.67;;;23.40;;
74833;SDS011;63361;52.384;20.930;2022-11-20T11:26:23;40.40;;;18.73;;
74833;SDS011;63361;52.384;20.930;2022-11-20T11:28:59;34.70;;;17.17;;
74833;SDS011;63361;52.384;20.930;2022-11-20T11:31:29;53.25;;;23.40;;
74833;SDS011;63361;52.384;20.930;2022-11-20T11:36:30;48.97;;;20.60;;
74833;SDS011;63361;52.384;20.930;2022-11-20T11:38:58;89.95;;;37.25;;
74833;SDS011;63361;52.384;20.930;2022-11-20T11:41:24;52.10;;;24.77;;
74833;SDS011;63361;52.384;20.930;2022-11-20T11:44:00;62.87;;;28.03;;
74833;SDS011;63361;52.384;20.930;2022-11-20T11:46:57;131.57;;;63.15;;
74833;SDS011;63361;52.384;20.930;2022-11-20T11:49:23;74.97;;;33.27;;
74833;SDS011;63361;52.384;20.930;2022-11-20T11:54:41;112.37;;;44.17;;
74833;SDS011;63361;52.384;20.930;2022-11-20T11:57:23;49.35;;;23.23;;
74833;SDS011;63361;52.384;20.930;2022-11-20T12:00:03;50.88;;;21.70;;
74833;SDS011;63361;52.384;20.930;2022-11-20T12:07:42;38.17;;;17.77;;
74833;SDS011;63361;52.384;20.930;2022-11-20T12:10:14;64.95;;;27.52;;
74833;SDS011;63361;52.384;20.930;2022-11-20T12:12:43;53.50;;;25.90;;
74833;SDS011;63361;52.384;20.930;2022-11-20T12:15:16;40.20;;;18.33;;
74833;SDS011;63361;52.384;20.930;2022-11-20T12:18:09;75.18;;;35.22;;
74833;SDS011;63361;52.384;20.930;2022-11-20T12:20:42;42.10;;;19.67;;
74833;SDS011;63361;52.384;20.930;2022-11-20T12:26:01;39.85;;;20.80;;
74833;SDS011;63361;52.384;20.930;2022-11-20T12:33:47;43.50;;;19.57;;
74833;SDS011;63361;52.384;20.930;2022-11-20T12:36:28;46.97;;;23.02;;
74833;SDS011;63361;52.384;20.930;2022-11-20T12:45:06;37.40;;;17.25;;
74833;SDS011;63361;52.384;20.930;2022-11-20T13:02:14;60.13;;;23.70;;
74833;SDS011;63361;52.384;20.930;2022-11-20T13:07:47;85.77;;;30.67;;
74833;SDS011;63361;52.384;20.930;2022-11-20T13:10:26;57.22;;;23.90;;
74833;SDS011;63361;52.384;20.930;2022-11-20T13:13:27;91.38;;;33.35;;
74833;SDS011;63361;52.384;20.930;2022-11-20T13:18:42;39.80;;;18.65;;
74833;SDS011;63361;52.384;20.930;2022-11-20T13:21:23;42.10;;;18.37;;
74833;SDS011;63361;52.384;20.930;2022-11-20T13:24:04;40.28;;;19.05;;
74833;SDS011;63361;52.384;20.930;2022-11-20T13:26:30;60.97;;;24.50;;
74833;SDS011;63361;52.384;20.930;2022-11-20T13:29:03;67.13;;;25.50;;
74833;SDS011;63361;52.384;20.930;2022-11-20T13:31:36;124.18;;;46.30;;
74833;SDS011;63361;52.384;20.930;2022-11-20T13:34:11;70.13;;;31.37;;
74833;SDS011;63361;52.384;20.930;2022-11-20T13:36:58;87.90;;;42.30;;
74833;SDS011;63361;52.384;20.930;2022-11-20T13:39:29;46.50;;;23.85;;
74833;SDS011;63361;52.384;20.930;2022-11-20T13:41:57;88.68;;;32.88;;
74833;SDS011;63361;52.384;20.930;2022-11-20T13:47:21;84.63;;;31.87;;
74833;SDS011;63361;52.384;20.930;2022-11-20T13:49:49;54.67;;;25.83;;
74833;SDS011;63361;52.384;20.930;2022-11-20T14:00:50;65.47;;;27.80;;
74833;SDS011;63361;52.384;20.930;2022-11-20T14:03:22;76.22;;;31.85;;
74833;SDS011;63361;52.384;20.930;2022-11-20T14:05:54;73.10;;;30.83;;
74833;SDS011;63361;52.384;20.930;2022-11-20T14:08:26;56.88;;;24.63;;
74833;SDS011;63361;52.384;20.930;2022-11-20T14:11:16;93.30;;;33.53;;
74833;SDS011;63361;52.384;20.930;2022-11-20T14:16:29;67.00;;;26.40;;
74833;SDS011;63361;52.384;20.930;2022-11-20T14:21:44;112.32;;;41.42;;
74833;SDS011;63361;52.384;20.930;2022-11-20T14:24:11;85.18;;;30.08;;
74833;SDS011;63361;52.384;20.930;2022-11-20T14:26:41;89.50;;;32.13;;
74833;SDS011;63361;52.384;20.930;2022-11-20T14:29:14;52.45;;;24.00;;
74833;SDS011;63361;52.384;20.930;2022-11-20T14:31:42;527.15;;;188.20;;
74833;SDS011;63361;52.384;20.930;2022-11-20T14:34:15;166.25;;;51.00;;
74833;SDS011;63361;52.384;20.930;2022-11-20T14:36:43;409.15;;;111.43;;
74833;SDS011;63361;52.384;20.930;2022-11-20T14:39:10;463.63;;;128.27;;
74833;SDS011;63361;52.384;20.930;2022-11-20T14:41:37;549.78;;;176.98;;
74833;SDS011;63361;52.384;20.930;2022-11-20T14:44:02;279.93;;;82.63;;
74833;SDS011;63361;52.384;20.930;2022-11-20T14:46:29;210.50;;;61.40;;
74833;SDS011;63361;52.384;20.930;2022-11-20T14:48:56;132.10;;;43.38;;
74833;SDS011;63361;52.384;20.930;2022-11-20T14:51:35;140.95;;;42.78;;
74833;SDS011;63361;52.384;20.930;2022-11-20T14:54:14;223.95;;;70.40;;
74833;SDS011;63361;52.384;20.930;2022-11-20T14:56:41;144.93;;;51.03;;
74833;SDS011;63361;52.384;20.930;2022-11-20T14:59:08;167.57;;;56.53;;
74833;SDS011;63361;52.384;20.930;2022-11-20T15:01:34;102.40;;;38.33;;
74833;SDS011;63361;52.384;20.930;2022-11-20T15:04:00;84.83;;;32.73;;
74833;SDS011;63361;52.384;20.930;2022-11-20T15:06:34;65.68;;;28.02;;
74833;SDS011;63361;52.384;20.930;2022-11-20T15:09:01;67.50;;;29.43;;
74833;SDS011;63361;52.384;20.930;2022-11-20T15:11:32;80.27;;;33.07;;
74833;SDS011;63361;52.384;20.930;2022-11-20T15:14:03;73.95;;;30.50;;
74833;SDS011;63361;52.384;20.930;2022-11-20T15:16:30;70.60;;;29.58;;
74833;SDS011;63361;52.384;20.930;2022-11-20T15:18:56;71.93;;;29.87;;
74833;SDS011;63361;52.384;20.930;2022-11-20T15:21:21;94.72;;;36.08;;
74833;SDS011;63361;52.384;20.930;2022-11-20T15:23:47;95.70;;;41.23;;
74833;SDS011;63361;52.384;20.930;2022-11-20T15:26:14;86.70;;;36.70;;
74833;SDS011;63361;52.384;20.930;2022-11-20T15:28:51;77.85;;;34.45;;
74833;SDS011;63361;52.384;20.930;2022-11-20T15:31:18;92.10;;;34.87;;
74833;SDS011;63361;52.384;20.930;2022-11-20T15:33:45;54.10;;;22.92;;
74833;SDS011;63361;52.384;20.930;2022-11-20T15:36:11;68.63;;;29.43;;
74833;SDS011;63361;52.384;20.930;2022-11-20T15:38:37;76.28;;;32.65;;
74833;SDS011;63361;52.384;20.930;2022-11-20T15:41:02;79.67;;;32.57;;
74833;SDS011;63361;52.384;20.930;2022-11-20T15:43:28;74.77;;;30.60;;
74833;SDS011;63361;52.384;20.930;2022-11-20T15:45:58;59.47;;;26.70;;
74833;SDS011;63361;52.384;20.930;2022-11-20T15:48:29;54.97;;;25.70;;
74833;SDS011;63361;52.384;20.930;2022-11-20T15:53:51;71.38;;;30.85;;
74833;SDS011;63361;52.384;20.930;2022-11-20T15:56:17;66.87;;;29.70;;
74833;SDS011;63361;52.384;20.930;2022-11-20T15:58:42;71.17;;;31.87;;
74833;SDS011;63361;52.384;20.930;2022-11-20T16:01:10;78.53;;;33.80;;
74833;SDS011;63361;52.384;20.930;2022-11-20T16:03:40;62.57;;;29.60;;
74833;SDS011;63361;52.384;20.930;2022-11-20T16:06:06;56.88;;;26.88;;